메인 페이지
METAR-TAF:

METAR-TAF

공항 :

푼샬, 마데이라 제도, 포르투갈

마데이라 공항

위도: 32-41-52N, 경도: 016-46-28W, 고도: 59m

현재 날씨관측

예보는 27분 전, 05:30시(UTC)에 발표되었습니다.
14kt
온도 15°C
습도 67%
기압 1019 hPa
시정 10km 이상
고도 1500ft 상공 구름 조금

METAR: LPMA 200530Z 35014KT 9999 FEW015 15/09 Q1019

시각: 05:57 (05:57 UTC)

예보

예보는 57분 전, 05:00시(UTC)에 발표되었습니다.
예보 대상 시간: 20일 06시부터 21일 06시까지 (UTC)
15kt
시정 10km 이상
고도 1500ft 상공 구름 조금
일시적
20일 06시부터 20일 21시까지 (UTC)
18kt, 순간 최대 풍속 28kt
고도 1500ft 상공 구름 보통
고도 3000ft 상공 구름 많음
전환 중
21일 00시부터 21일 02시까지 (UTC)
10kt

TAF: LPMA 200500Z 2006/2106 01015KT 9999 FEW015 TEMPO 2006/2021 01018G28KT SCT015 BKN030 BECMG 2100/2102 36010KT

4,000개 이상의 공항 관측 자료 및 예보 (METAR 및 TAF 보고).

지도상에서 검색 가능한 기상관측소가 노란 점과 빨간 점으로 표시되어 있습니다.

기상관측소 명을 보려면 표시 위로 마우스를 이동하세요.

날씨 관측과 예보를 보려면 클릭하세요.

지도 변경 : 확대하려면 엑스 표시가 있는 녹색 버튼, 축소하려면 빼기 표시가 있는 녹색 버튼, 다음 페이지의 지도를 보려면 녹색 화살표를 클릭하세요.


METAR-TAF: